Time;durP1;ratioP1;P1;durP2;ratioP2;P2;SDS_P1;SDS_P2;PMS_P1;PMS_P2;Temp;Humidity;BMP_temperature;BMP_pressure;BME280_temperature;BME280_humidity;BME280_pressure;Samples;Min_cycle;Max_cycle;Signal;HPM_P1;HPM_P2
2022/12/16 00:01:09;;;;;;;;;;;;;;;28.59;46.61;96648.23;602746;235;64899;-68
2022/12/16 00:03:37;;;;;;;;;;;;;;;28.58;47.81;96656.69;602796;235;66859;-71
2022/12/16 00:06:05;;;;;;;;;;;;;;;28.57;46.83;96665.94;602832;235;64439;-72
2022/12/16 00:08:34;;;;;;;;;;;;;;;28.55;47.07;96652.73;602820;235;65028;-71
2022/12/16 00:11:03;;;;;;;;;;;;;;;28.53;47.32;96638.75;602775;233;65093;-71
2022/12/16 00:13:31;;;;;;;;;;;;;;;28.54;47.46;96637.64;602737;235;67377;-72
2022/12/16 00:15:59;;;;;;;;;;;;;;;28.53;46.79;96636.83;602777;235;62790;-71
2022/12/16 00:18:27;;;;;;;;;;;;;;;28.51;46.68;96627.47;602782;235;67306;-71
2022/12/16 00:20:54;;;;;;;;;;;;;;;28.50;47.64;96650.22;602851;235;66911;-71
2022/12/16 00:23:22;;;;;;;;;;;;;;;28.49;46.56;96660.25;602791;235;62702;-71
2022/12/16 00:25:50;;;;;;;;;;;;;;;28.47;47.44;96657.07;602813;235;65014;-72
2022/12/16 00:28:21;;;;;;;;;;;;;;;28.46;46.69;96660.91;604496;233;65659;-71
2022/12/16 00:30:47;;;;;;;;;;;;;;;28.46;46.75;96663.61;607324;233;62854;-71
2022/12/16 00:33:15;;;;;;;;;;;;;;;28.44;46.02;96660.44;607419;233;64405;-72
2022/12/16 00:35:43;;;;;;;;;;;;;;;28.44;46.07;96662.35;607364;233;65231;-71
2022/12/16 00:38:10;;;;;;;;;;;;;;;28.42;47.01;96665.34;607342;233;63038;-71
2022/12/16 00:40:38;;;;;;;;;;;;;;;28.41;46.42;96674.58;607326;233;65039;-71
2022/12/16 00:43:05;;;;;;;;;;;;;;;28.40;45.48;96670.30;607390;233;67101;-71
2022/12/16 00:45:33;;;;;;;;;;;;;;;28.39;46.46;96668.70;607364;233;65047;-71
2022/12/16 00:48:00;;;;;;;;;;;;;;;28.38;46.09;96664.42;607405;233;65045;-71
2022/12/16 00:50:28;;;;;;;;;;;;;;;28.37;46.25;96670.94;607399;233;64660;-71
2022/12/16 00:52:55;;;;;;;;;;;;;;;28.37;46.65;96667.45;607366;233;65207;-71
2022/12/16 00:55:24;;;;;;;;;;;;;;;28.35;46.13;96675.89;607395;233;67221;-71
2022/12/16 00:57:51;;;;;;;;;;;;;;;28.34;45.19;96677.78;607407;233;65158;-71
2022/12/16 01:00:19;;;;;;;;;;;;;;;28.33;47.47;96675.42;607404;233;64920;-71
2022/12/16 01:02:47;;;;;;;;;;;;;;;28.31;45.97;96672.25;607330;233;68057;-71
2022/12/16 01:05:16;;;;;;;;;;;;;;;28.31;45.56;96666.84;607344;233;67044;-71
2022/12/16 01:07:43;;;;;;;;;;;;;;;28.32;45.65;96668.45;607312;233;65186;-72
2022/12/16 01:10:11;;;;;;;;;;;;;;;28.30;47.57;96662.57;607363;233;67248;-68
2022/12/16 01:12:39;;;;;;;;;;;;;;;28.29;46.51;96655.56;607383;233;67449;-68
2022/12/16 01:15:07;;;;;;;;;;;;;;;28.27;45.88;96674.83;607354;233;65186;-68
2022/12/16 01:17:35;;;;;;;;;;;;;;;28.27;45.73;96665.93;607369;233;67291;-68
2022/12/16 01:20:02;;;;;;;;;;;;;;;28.25;44.55;96660.05;607367;233;66632;-68
2022/12/16 01:22:31;;;;;;;;;;;;;;;28.24;46.22;96659.27;607343;233;65042;-68
2022/12/16 01:24:59;;;;;;;;;;;;;;;28.23;46.01;96657.66;607405;233;65134;-68
2022/12/16 01:27:27;;;;;;;;;;;;;;;28.22;47.50;96656.09;607272;233;67219;-68
2022/12/16 01:29:55;;;;;;;;;;;;;;;28.20;45.96;96644.81;607357;233;64896;-68
2022/12/16 01:32:23;;;;;;;;;;;;;;;28.21;46.69;96632.09;607371;233;67132;-68
2022/12/16 01:34:51;;;;;;;;;;;;;;;28.19;46.07;96628.95;607312;233;66849;-71
2022/12/16 01:37:19;;;;;;;;;;;;;;;28.18;45.76;96621.94;607343;233;64895;-72
2022/12/16 01:39:47;;;;;;;;;;;;;;;28.17;46.15;96614.97;607381;233;67085;-71
2022/12/16 01:42:17;;;;;;;;;;;;;;;28.15;46.29;96614.49;607382;233;66649;-71
2022/12/16 01:44:46;;;;;;;;;;;;;;;28.14;45.11;96615.63;607416;233;64895;-71
2022/12/16 01:47:15;;;;;;;;;;;;;;;28.13;46.29;96600.52;607343;233;66688;-71
2022/12/16 01:49:44;;;;;;;;;;;;;;;28.12;47.36;96597.03;607388;233;66954;-71
2022/12/16 01:52:13;;;;;;;;;;;;;;;28.10;47.75;96588.45;607357;233;64999;-72
2022/12/16 01:54:45;;;;;;;;;;;;;;;28.09;46.38;96579.56;607301;233;67236;-72
2022/12/16 01:57:13;;;;;;;;;;;;;;;28.08;45.36;96572.59;607371;233;64637;-72
2022/12/16 01:59:42;;;;;;;;;;;;;;;28.07;45.76;96576.42;607350;233;65101;-72
2022/12/16 02:02:11;;;;;;;;;;;;;;;28.06;46.95;96572.12;607390;233;64697;-71
2022/12/16 02:07:25;;;;;;;;;;;;;;;28.05;46.30;96558.95;607415;233;63020;-72
2022/12/16 02:09:53;;;;;;;;;;;;;;;28.03;45.92;96556.57;607351;233;67231;-72
2022/12/16 02:12:22;;;;;;;;;;;;;;;28.01;46.66;96553.40;607320;233;64937;-71
2022/12/16 02:14:57;;;;;;;;;;;;;;;28.00;46.22;96551.83;606584;233;62865;-72
2022/12/16 02:17:35;;;;;;;;;;;;;;;28.00;48.21;96551.83;607160;233;65008;-71
2022/12/16 02:20:13;;;;;;;;;;;;;;;27.99;45.87;96554.84;607251;233;67069;-71
2022/12/16 02:22:45;;;;;;;;;;;;;;;27.98;46.24;96562.16;607350;233;65008;-72
2022/12/16 02:25:31;;;;;;;;;;;;;;;27.95;46.62;96562.82;607013;233;67250;-72
2022/12/16 02:28:00;;;;;;;;;;;;;;;27.95;45.18;96575.53;607268;233;67239;-71
2022/12/16 02:30:42;;;;;;;;;;;;;;;27.93;48.10;96566.97;607273;233;65103;-72
2022/12/16 02:33:12;;;;;;;;;;;;;;;27.91;47.68;96572.71;607118;233;65765;-71
2022/12/16 02:35:40;;;;;;;;;;;;;;;27.91;46.93;96567.31;607370;233;66904;-71
2022/12/16 02:38:25;;;;;;;;;;;;;;;27.90;48.99;96573.80;607335;233;65089;-72
2022/12/16 02:40:57;;;;;;;;;;;;;;;27.87;48.98;96567.15;607402;233;64995;-72
2022/12/16 02:43:44;;;;;;;;;;;;;;;27.86;50.02;96573.67;607205;233;65311;-72
2022/12/16 02:46:12;;;;;;;;;;;;;;;27.83;49.01;96568.94;607332;233;65269;-73
2022/12/16 02:48:39;;;;;;;;;;;;;;;27.83;46.36;96571.63;607330;233;67292;-72
2022/12/16 02:51:07;;;;;;;;;;;;;;;27.81;48.54;96559.58;607345;233;66901;-72
2022/12/16 02:53:35;;;;;;;;;;;;;;;27.79;47.69;96559.86;607350;233;64905;-69
2022/12/16 02:56:17;;;;;;;;;;;;;;;27.80;48.13;96557.97;607371;233;67207;-69
2022/12/16 02:58:49;;;;;;;;;;;;;;;27.78;47.62;96552.10;607349;233;67119;-69
2022/12/16 03:01:21;;;;;;;;;;;;;;;27.77;46.35;96553.98;607387;233;62778;-69
2022/12/16 03:03:53;;;;;;;;;;;;;;;27.78;46.79;96554.80;607189;233;64480;-69
2022/12/16 03:06:22;;;;;;;;;;;;;;;27.75;47.46;96564.34;607341;233;65909;-68
2022/12/16 03:08:51;;;;;;;;;;;;;;;27.74;47.11;96553.86;607332;233;62877;-69
2022/12/16 03:11:18;;;;;;;;;;;;;;;27.74;46.73;96551.16;607356;233;65331;-69
2022/12/16 03:13:47;;;;;;;;;;;;;;;27.73;47.93;96552.28;607363;233;66784;-69
2022/12/16 03:16:16;;;;;;;;;;;;;;;27.70;48.80;96544.84;607332;233;65065;-69
2022/12/16 03:18:45;;;;;;;;;;;;;;;27.68;47.96;96556.73;607208;233;67399;-69
2022/12/16 03:21:14;;;;;;;;;;;;;;;27.68;46.70;96555.95;607319;233;66911;-69
2022/12/16 03:23:43;;;;;;;;;;;;;;;27.67;47.90;96551.68;607177;233;65038;-68
2022/12/16 03:26:13;;;;;;;;;;;;;;;27.66;49.54;96569.79;606625;233;64976;-69
2022/12/16 03:28:42;;;;;;;;;;;;;;;27.65;50.81;96578.98;604756;233;67067;-69
2022/12/16 03:31:16;;;;;;;;;;;;;;;27.63;49.38;96573.12;602782;235;64762;-69
2022/12/16 03:33:45;;;;;;;;;;;;;;;27.63;47.29;96569.63;602685;234;67088;-69
2022/12/16 03:36:14;;;;;;;;;;;;;;;27.62;49.04;96565.36;602596;234;65685;-69
2022/12/16 03:38:43;;;;;;;;;;;;;;;27.61;48.24;96569.16;602835;234;64995;-67
2022/12/16 03:41:11;;;;;;;;;;;;;;;27.59;48.16;96572.20;602796;235;64875;-68
2022/12/16 03:43:39;;;;;;;;;;;;;;;27.57;49.40;96571.72;602778;235;67680;-68
2022/12/16 03:46:07;;;;;;;;;;;;;;;27.56;51.03;96572.06;602767;235;62527;-68
2022/12/16 03:48:35;;;;;;;;;;;;;;;27.56;49.80;96580.95;602798;235;65007;-67
2022/12/16 03:51:02;;;;;;;;;;;;;;;27.52;47.73;96582.70;602849;235;66718;-68
2022/12/16 03:53:30;;;;;;;;;;;;;;;27.53;48.93;96576.20;602784;235;65072;-68
2022/12/16 03:55:57;;;;;;;;;;;;;;;27.51;48.71;96585.73;602759;235;67278;-68
2022/12/16 03:58:25;;;;;;;;;;;;;;;27.51;50.48;96577.64;602768;235;67262;-67
2022/12/16 04:00:52;;;;;;;;;;;;;;;27.50;49.56;96581.44;602803;235;65111;-68
2022/12/16 04:03:21;;;;;;;;;;;;;;;27.48;49.76;96584.47;602849;235;64906;-67
2022/12/16 04:05:49;;;;;;;;;;;;;;;27.46;49.68;96575.91;602886;235;67042;-68
2022/12/16 04:08:16;;;;;;;;;;;;;;;27.45;50.10;96579.72;602803;235;65058;-68
2022/12/16 04:24:33;;;;;;;;;;;;;;;27.36;50.45;96568.94;602858;235;63120;-67
